Time;durP1;ratioP1;P1;durP2;ratioP2;P2;SDS_P1;SDS_P2;PMS_P1;PMS_P2;Temp;Humidity;BMP_temperature;BMP_pressure;BME280_temperature;BME280_humidity;BME280_pressure;Samples;Min_cycle;Max_cycle;Signal;HPM_P1;HPM_P2
2022/05/01 00:00:39;;;;;;;11.45;5.53;;;;;;;7.26;100.00;93399.25;5031951;28;20830;-84
2022/05/01 00:03:07;;;;;;;10.02;5.60;;;;;;;7.75;100.00;93456.47;5031997;28;20050;-84
2022/05/01 00:05:34;;;;;;;9.35;5.32;;;;;;;7.43;100.00;93391.34;5032347;28;20042;-83
2022/05/01 00:08:03;;;;;;;9.32;5.28;;;;;;;7.84;100.00;93448.66;5032049;28;20045;-85
2022/05/01 00:10:31;;;;;;;9.73;6.18;;;;;;;7.80;100.00;93444.88;5031959;28;20041;-85
2022/05/01 00:12:58;;;;;;;14.50;8.45;;;;;;;7.46;100.00;93396.84;5032057;28;20099;-84
2022/05/01 00:15:25;;;;;;;14.25;8.65;;;;;;;7.65;100.00;93417.66;5032127;28;20052;-84
2022/05/01 00:17:52;;;;;;;14.57;8.45;;;;;;;7.41;100.00;93376.19;5031700;28;20044;-84
2022/05/01 00:20:19;;;;;;;16.80;11.32;;;;;;;7.82;100.00;93438.59;5031700;28;20056;-84
2022/05/01 00:22:45;;;;;;;17.48;12.13;;;;;;;7.85;100.00;93432.34;5031754;28;20139;-83
2022/05/01 00:25:13;;;;;;;17.75;10.82;;;;;;;7.91;100.00;93426.47;5031537;28;20045;-84
2022/05/01 00:27:41;;;;;;;14.98;9.77;;;;;;;7.92;100.00;93425.47;5030542;28;20413;-84
2022/05/01 00:30:09;;;;;;;13.75;8.35;;;;;;;7.93;100.00;93428.84;5031573;28;20053;-84
2022/05/01 00:38:00;;;;;;;15.05;7.95;;;;;;;7.68;100.00;93394.25;5031293;28;20175;-84
2022/05/01 00:40:27;;;;;;;12.02;7.32;;;;;;;7.44;100.00;93360.47;5031469;28;20048;-85
2022/05/01 00:42:56;;;;;;;13.30;6.95;;;;;;;7.81;100.00;93416.56;5031187;28;20042;-84
2022/05/01 00:45:23;;;;;;;11.57;6.63;;;;;;;7.77;100.00;93417.16;5031237;28;20045;-84
2022/05/01 00:47:49;;;;;;;11.73;6.70;;;;;;;7.42;100.00;93371.88;5031347;28;20041;-84
2022/05/01 00:50:17;;;;;;;10.35;6.30;;;;;;;7.75;100.00;93410.47;5031576;28;20092;-84
2022/05/01 00:52:45;;;;;;;11.40;6.45;;;;;;;7.68;100.00;93407.03;5031100;28;20530;-85
2022/05/01 00:55:12;;;;;;;13.18;6.55;;;;;;;7.18;100.00;93340.66;5031211;28;20041;-84
2022/05/01 00:57:39;;;;;;;9.82;6.38;;;;;;;7.51;100.00;93404.00;5031414;28;20046;-84
2022/05/01 01:00:09;;;;;;;12.45;6.47;;;;;;;7.06;100.00;93343.72;5031540;28;20042;-85
2022/05/01 01:02:36;;;;;;;12.02;6.68;;;;;;;7.45;100.00;93404.72;5031237;28;20046;-84
2022/05/01 01:05:05;;;;;;;10.95;6.32;;;;;;;6.98;100.00;93338.72;5030829;28;20140;-84
2022/05/01 01:07:33;;;;;;;12.77;6.75;;;;;;;7.18;100.00;93353.41;5030912;28;20045;-84
2022/05/01 01:10:00;;;;;;;10.80;6.50;;;;;;;7.13;100.00;93353.19;5030983;28;20057;-84
2022/05/01 01:15:14;;;;;;;11.38;8.13;;;;;;;7.42;100.00;93395.66;5031016;28;20068;-85
2022/05/01 01:17:42;;;;;;;15.85;10.27;;;;;;;6.96;100.00;93333.00;5030576;28;20503;-85
2022/05/01 01:20:13;;;;;;;17.23;10.45;;;;;;;7.01;100.00;93363.09;5030624;28;20128;-84
2022/05/01 01:22:42;;;;;;;18.08;10.40;;;;;;;6.81;100.00;93336.41;5030655;28;20041;-84
2022/05/01 01:25:10;;;;;;;15.65;8.77;;;;;;;7.02;100.00;93382.53;5030941;28;20374;-84
2022/05/01 01:27:37;;;;;;;16.45;9.10;;;;;;;7.07;100.00;93395.56;5030598;28;20041;-84
2022/05/01 01:32:51;;;;;;;17.02;8.27;;;;;;;7.16;100.00;93416.66;5030468;28;20714;-84
2022/05/01 01:35:19;;;;;;;12.20;7.18;;;;;;;6.95;100.00;93387.63;5030653;28;20045;-83
2022/05/01 01:37:49;;;;;;;13.00;7.05;;;;;;;6.69;100.00;93353.19;5030175;28;20477;-84
2022/05/01 01:40:20;;;;;;;12.75;6.90;;;;;;;6.95;100.00;93415.72;5030307;28;20064;-83
2022/05/01 01:42:47;;;;;;;12.10;6.80;;;;;;;6.67;100.00;93370.47;5030153;28;20045;-83
2022/05/01 01:45:14;;;;;;;10.85;6.65;;;;;;;6.62;100.00;93380.41;5030548;28;20045;-84
2022/05/01 01:47:42;;;;;;;11.20;6.72;;;;;;;6.27;100.00;93333.34;5030365;28;20063;-83
2022/05/01 01:50:10;;;;;;;11.93;6.93;;;;;;;6.72;100.00;93406.44;5030284;28;20140;-84
2022/05/01 01:52:37;;;;;;;11.95;6.75;;;;;;;6.73;100.00;93400.38;5030263;28;20081;-84
2022/05/01 01:55:06;;;;;;;10.43;6.32;;;;;;;6.36;100.00;93349.34;5030101;28;20378;-84
2022/05/01 01:57:33;;;;;;;12.25;6.28;;;;;;;6.27;100.00;93337.66;5030085;28;20050;-84
2022/05/01 02:00:00;;;;;;;11.43;6.43;;;;;;;6.72;100.00;93398.78;5029731;28;20049;-83
2022/05/01 02:02:27;;;;;;;11.77;7.07;;;;;;;6.25;100.00;93332.72;5030206;28;20041;-83
2022/05/01 02:04:53;;;;;;;10.38;6.15;;;;;;;6.02;100.00;93307.34;5030029;28;20045;-84
2022/05/01 02:07:20;;;;;;;7.70;5.03;;;;;;;6.67;100.00;93413.84;5030167;28;20068;-83
2022/05/01 02:09:47;;;;;;;10.50;6.57;;;;;;;6.14;100.00;93343.38;5030307;28;20045;-83
2022/05/01 02:12:19;;;;;;;12.13;6.22;;;;;;;6.09;100.00;93358.44;5029948;28;20045;-83
2022/05/01 02:14:46;;;;;;;8.93;5.13;;;;;;;5.88;100.00;93352.28;5030156;28;20123;-83
2022/05/01 02:17:13;;;;;;;8.43;5.28;;;;;;;6.26;100.00;93400.63;5029953;28;20088;-83
2022/05/01 02:19:40;;;;;;;9.50;5.25;;;;;;;6.23;100.00;93388.25;5010499;28;20911;-84
2022/05/01 02:22:07;;;;;;;9.88;5.47;;;;;;;6.10;100.00;93385.50;5010418;28;20073;-84
2022/05/01 02:24:35;;;;;;;11.95;5.43;;;;;;;5.86;100.00;93351.66;5019518;28;20045;-83
2022/05/01 02:27:02;;;;;;;8.98;5.43;;;;;;;6.24;100.00;93401.78;5043936;28;20045;-84
2022/05/01 02:29:30;;;;;;;9.18;5.15;;;;;;;6.30;100.00;93403.63;5030181;28;20055;-84
2022/05/01 02:31:57;;;;;;;7.25;4.75;;;;;;;6.10;100.00;93377.88;5030093;28;20136;-83
2022/05/01 02:34:25;;;;;;;7.32;4.53;;;;;;;5.77;100.00;93327.22;5028922;28;20396;-84
2022/05/01 02:36:52;;;;;;;8.25;4.78;;;;;;;5.71;100.00;93333.81;5027841;28;20111;-84
2022/05/01 02:39:19;;;;;;;9.57;5.45;;;;;;;6.10;100.00;93395.72;5029133;28;20041;-83
2022/05/01 02:41:46;;;;;;;9.68;5.60;;;;;;;6.06;100.00;93379.97;5029487;28;20049;-83
2022/05/01 02:44:13;;;;;;;9.80;5.82;;;;;;;6.01;100.00;93377.94;5029597;28;20091;-84
2022/05/01 02:46:41;;;;;;;7.70;5.03;;;;;;;6.05;100.00;93390.34;5029193;28;20050;-84
2022/05/01 02:49:10;;;;;;;7.70;4.90;;;;;;;6.04;100.00;93381.13;5029443;28;20065;-84
2022/05/01 02:51:37;;;;;;;8.38;5.15;;;;;;;5.69;100.00;93330.66;5033501;28;20049;-83
2022/05/01 02:54:05;;;;;;;7.68;4.75;;;;;;;5.62;100.00;93344.09;5033238;28;20131;-84
2022/05/01 02:56:33;;;;;;;7.72;4.95;;;;;;;6.03;100.00;93397.41;5033636;28;20128;-84
2022/05/01 02:59:00;;;;;;;9.13;5.43;;;;;;;5.87;100.00;93388.91;5033226;28;20091;-83
2022/05/01 03:01:29;;;;;;;8.25;5.35;;;;;;;5.71;100.00;93364.41;5033541;28;20045;-83
2022/05/01 03:03:57;;;;;;;8.57;5.57;;;;;;;5.84;100.00;93412.22;5033712;28;20041;-83
2022/05/01 03:06:24;;;;;;;8.68;5.53;;;;;;;5.58;100.00;93390.50;5033310;28;20049;-83
2022/05/01 03:08:51;;;;;;;11.55;6.38;;;;;;;5.28;100.00;93347.16;5033410;28;20049;-83
2022/05/01 03:11:18;;;;;;;8.80;5.30;;;;;;;5.57;100.00;93405.00;5033010;28;20124;-82
2022/05/01 03:13:46;;;;;;;9.73;5.63;;;;;;;5.68;100.00;93418.25;5033157;28;20370;-83
2022/05/01 03:16:13;;;;;;;9.45;5.53;;;;;;;5.27;100.00;93358.31;5033893;28;20038;-83
2022/05/01 03:24:09;;;;;;;11.20;7.18;;;;;;;5.61;100.00;93408.00;5031127;28;20051;-84
2022/05/01 03:26:37;;;;;;;17.90;9.70;;;;;;;4.94;100.00;93334.69;5031029;28;20056;-84
2022/05/01 03:29:06;;;;;;;13.45;8.35;;;;;;;5.49;100.00;93417.81;5031227;28;20144;-85
2022/05/01 03:31:37;;;;;;;15.93;7.70;;;;;;;5.37;100.00;93380.97;5032353;28;20080;-82
2022/05/01 03:34:05;;;;;;;13.98;7.65;;;;;;;5.66;100.00;93422.75;5032309;28;20037;-84
2022/05/01 03:36:33;;;;;;;11.38;7.25;;;;;;;5.59;100.00;93426.00;5032375;28;20060;-83
2022/05/01 03:39:04;;;;;;;16.88;7.13;;;;;;;5.31;100.00;93385.00;5032027;28;20481;-85
2022/05/01 03:41:33;;;;;;;10.00;6.35;;;;;;;5.27;100.00;93394.75;5029779;28;20053;-85
2022/05/01 03:44:00;;;;;;;9.48;6.25;;;;;;;5.50;100.00;93451.72;5032315;28;20164;-85
2022/05/01 03:46:27;;;;;;;12.80;6.40;;;;;;;5.42;100.00;93450.03;5032158;28;20079;-83
2022/05/01 03:48:54;;;;;;;11.73;6.35;;;;;;;5.15;100.00;93408.84;5028661;28;20049;-83
2022/05/01 03:51:21;;;;;;;12.10;6.82;;;;;;;5.21;100.00;93415.81;5030089;28;20038;-83
2022/05/01 03:53:49;;;;;;;11.30;6.20;;;;;;;5.41;100.00;93428.84;5031839;28;20037;-83
2022/05/01 03:56:16;;;;;;;10.73;6.00;;;;;;;5.41;100.00;93435.72;5031669;28;20038;-83
2022/05/01 03:58:43;;;;;;;11.02;6.03;;;;;;;5.60;100.00;93452.28;5032286;28;20037;-83
2022/05/01 04:01:10;;;;;;;10.75;7.22;;;;;;;5.61;100.00;93456.41;5031947;28;20050;-83
2022/05/01 04:03:37;;;;;;;12.02;6.68;;;;;;;5.73;100.00;93455.03;5032046;28;20527;-83
2022/05/01 04:06:04;;;;;;;13.90;7.53;;;;;;;5.72;100.00;93439.91;5031942;28;20033;-83
2022/05/01 04:08:31;;;;;;;12.40;6.78;;;;;;;5.85;100.00;93454.59;5031504;28;20045;-82
2022/05/01 04:11:01;;;;;;;13.60;7.30;;;;;;;5.95;100.00;93450.03;5031490;28;20123;-82
2022/05/01 04:13:28;;;;;;;11.20;6.47;;;;;;;6.03;100.00;93461.16;5031863;28;20120;-83
2022/05/01 04:15:55;;;;;;;10.30;6.75;;;;;;;6.07;100.00;93449.63;5031556;28;20056;-82
2022/05/01 04:18:22;;;;;;;11.48;7.22;;;;;;;5.55;100.00;93357.72;5031058;28;20049;-82
2022/05/01 04:20:50;;;;;;;12.52;7.07;;;;;;;6.28;100.00;93457.38;5028983;28;20457;-82
2022/05/01 04:23:16;;;;;;;12.13;7.10;;;;;;;6.37;100.00;93460.63;5031589;28;20041;-82
2022/05/01 04:25:43;;;;;;;9.93;6.00;;;;;;;5.92;100.00;93376.44;5031104;28;20791;-82
2022/05/01 04:28:13;;;;;;;12.18;6.25;;;;;;;6.66;100.00;93468.41;5028720;28;20064;-82
2022/05/01 04:30:41;;;;;;;11.80;6.28;;;;;;;6.75;100.00;93461.47;5031260;28;20053;-82
2022/05/01 04:33:10;;;;;;;10.15;5.38;;;;;;;6.79;100.00;93442.25;5031054;28;20046;-81
2022/05/01 04:35:40;;;;;;;11.23;6.38;;;;;;;6.84;100.00;93427.19;5032110;28;20045;-81
2022/05/01 04:38:09;;;;;;;12.32;6.00;;;;;;;7.15;100.00;93453.41;5031805;28;20052;-81
2022/05/01 04:40:38;;;;;;;10.05;5.88;;;;;;;7.24;100.00;93447.22;5031598;28;20053;-81
2022/05/01 04:43:07;;;;;;;12.23;6.18;;;;;;;7.43;100.00;93452.66;5031273;28;20141;-81
2022/05/01 04:45:37;;;;;;;10.35;5.97;;;;;;;7.38;100.00;93420.00;5031354;28;20152;-82
2022/05/01 04:48:05;;;;;;;8.85;5.32;;;;;;;7.79;100.00;93456.91;5030889;28;21100;-81
2022/05/01 04:50:32;;;;;;;12.50;6.93;;;;;;;7.97;100.00;93451.28;5028840;28;20076;-81
2022/05/01 04:53:01;;;;;;;9.82;5.60;;;;;;;8.14;100.00;93459.47;5030842;28;20037;-82
2022/05/01 04:55:28;;;;;;;11.93;5.95;;;;;;;8.14;100.00;93445.88;5031098;28;20053;-82
2022/05/01 04:57:55;;;;;;;11.75;7.03;;;;;;;8.32;100.00;93447.19;5030925;28;20038;-81
2022/05/01 05:00:22;;;;;;;12.60;6.32;;;;;;;8.63;100.00;93463.88;5030757;28;20045;-81
2022/05/01 05:02:52;;;;;;;9.07;5.70;;;;;;;8.71;100.00;93453.47;5028174;28;20048;-81
2022/05/01 05:05:20;;;;;;;8.55;5.57;;;;;;;8.89;100.00;93463.16;5030458;28;20041;-82
2022/05/01 05:07:47;;;;;;;12.10;6.20;;;;;;;8.92;99.14;93437.19;5029062;28;20037;-81
2022/05/01 05:10:14;;;;;;;9.18;6.70;;;;;;;9.00;98.71;93415.72;5029702;28;20504;-81
2022/05/01 05:12:43;;;;;;;12.98;6.75;;;;;;;9.42;97.88;93453.22;5029806;28;20056;-81
2022/05/01 05:15:11;;;;;;;11.02;6.35;;;;;;;9.74;97.87;93461.94;5030523;28;20080;-81
2022/05/01 05:17:39;;;;;;;9.50;5.50;;;;;;;9.96;97.93;93461.69;5031736;28;20045;-82
2022/05/01 05:20:09;;;;;;;9.00;5.82;;;;;;;9.93;98.92;93462.09;5040087;28;20049;-82
2022/05/01 05:22:36;;;;;;;8.65;5.95;;;;;;;10.08;95.54;93464.44;5035207;28;20060;-83
2022/05/01 05:25:04;;;;;;;8.90;5.53;;;;;;;10.27;97.63;93464.59;5030741;28;20049;-82
2022/05/01 05:27:31;;;;;;;9.93;5.88;;;;;;;10.27;96.69;93467.97;5030430;28;20049;-83
2022/05/01 05:29:58;;;;;;;9.10;5.60;;;;;;;10.32;96.00;93464.78;5030311;28;20049;-82
2022/05/01 05:32:26;;;;;;;10.10;5.43;;;;;;;10.14;94.62;93406.41;5030247;28;20052;-82
2022/05/01 05:34:53;;;;;;;10.15;6.18;;;;;;;10.52;97.24;93439.06;5030727;28;20041;-82
2022/05/01 05:37:21;;;;;;;11.20;6.15;;;;;;;10.79;96.60;93449.25;5029977;28;20050;-81
2022/05/01 05:39:49;;;;;;;9.35;6.32;;;;;;;10.87;96.04;93453.38;5030611;28;20045;-82
2022/05/01 05:42:18;;;;;;;10.20;6.10;;;;;;;10.56;95.75;93404.28;5030285;28;20049;-84
2022/05/01 05:44:45;;;;;;;11.55;6.88;;;;;;;10.33;99.26;93461.25;5030487;28;20045;-84
2022/05/01 05:47:12;;;;;;;10.90;7.05;;;;;;;10.71;96.99;93453.84;5030504;28;20136;-83
2022/05/01 05:49:38;;;;;;;14.65;8.27;;;;;;;11.08;95.09;93439.41;5030280;28;20057;-84
2022/05/01 05:52:06;;;;;;;11.32;6.72;;;;;;;11.16;94.92;93438.38;5030340;28;20156;-83
2022/05/01 05:54:34;;;;;;;12.95;7.25;;;;;;;11.69;95.09;93462.19;5030462;28;20568;-82
2022/05/01 05:57:01;;;;;;;15.40;8.18;;;;;;;11.78;91.08;93447.25;5030044;28;20048;-82
2022/05/01 05:59:28;;;;;;;19.00;10.65;;;;;;;11.52;90.45;93400.16;5030023;28;20048;-83
2022/05/01 06:01:55;;;;;;;27.15;13.00;;;;;;;11.96;89.22;93471.47;5029798;28;20048;-83
2022/05/01 06:04:21;;;;;;;28.75;13.57;;;;;;;11.83;90.14;93475.72;5029872;28;20052;-83
2022/05/01 06:06:48;;;;;;;26.83;11.32;;;;;;;12.08;89.57;93451.00;5030231;28;20052;-83
2022/05/01 06:09:15;;;;;;;18.27;10.45;;;;;;;12.02;90.14;93445.66;5030024;28;20053;-84
2022/05/01 06:11:44;;;;;;;17.70;8.52;;;;;;;12.80;87.96;93480.56;5029621;28;20135;-84
2022/05/01 06:14:10;;;;;;;18.85;8.60;;;;;;;13.01;88.02;93487.03;5030044;28;20049;-84
2022/05/01 06:16:38;;;;;;;15.60;8.68;;;;;;;12.72;85.13;93439.63;5029232;28;20045;-85
2022/05/01 06:19:05;;;;;;;13.13;6.78;;;;;;;12.31;85.59;93426.41;5028213;28;20056;-84
2022/05/01 06:21:32;;;;;;;13.70;7.35;;;;;;;12.60;85.55;93483.38;5028532;28;20041;-83
2022/05/01 06:23:59;;;;;;;14.32;7.43;;;;;;;12.67;86.38;93460.88;5029513;28;20196;-83
2022/05/01 06:26:26;;;;;;;14.30;7.43;;;;;;;12.48;85.85;93457.50;5029663;28;20060;-83
2022/05/01 06:28:54;;;;;;;20.00;6.72;;;;;;;12.54;87.89;93469.53;5029505;28;20072;-83
2022/05/01 06:31:21;;;;;;;17.33;6.25;;;;;;;12.19;87.86;93488.13;5029335;28;20053;-82
2022/05/01 06:33:48;;;;;;;12.07;6.22;;;;;;;12.21;86.74;93432.81;5029289;28;20050;-82
2022/05/01 06:36:16;;;;;;;14.27;6.72;;;;;;;12.35;85.76;93427.56;5029565;28;20048;-85
2022/05/01 06:38:44;;;;;;;15.20;6.50;;;;;;;13.08;83.39;93489.53;5028991;28;20488;-84
2022/05/01 06:41:11;;;;;;;11.07;6.25;;;;;;;12.87;82.47;93429.69;5029473;28;20128;-85
2022/05/01 06:43:39;;;;;;;9.98;6.55;;;;;;;12.59;83.69;93467.09;5029646;28;20164;-85
2022/05/01 06:46:08;;;;;;;15.73;6.57;;;;;;;12.86;83.26;93440.25;5029566;28;20432;-85
2022/05/01 06:48:35;;;;;;;12.52;7.13;;;;;;;12.94;82.09;93389.16;5029246;28;20046;-84
2022/05/01 06:51:02;;;;;;;13.15;7.70;;;;;;;13.28;79.95;93400.81;5029175;28;20095;-85
2022/05/01 06:53:29;;;;;;;11.88;7.80;;;;;;;13.63;79.64;93416.38;5029577;28;20050;-83
2022/05/01 06:55:57;;;;;;;9.73;7.13;;;;;;;13.92;78.99;93459.59;5029571;28;20067;-82
2022/05/01 06:58:24;;;;;;;12.55;7.82;;;;;;;14.14;79.63;93470.16;5029169;28;20049;-82
2022/05/01 07:00:52;;;;;;;11.45;6.43;;;;;;;14.45;78.58;93472.63;5029153;28;20393;-82
2022/05/01 07:03:20;;;;;;;11.82;7.40;;;;;;;14.66;78.56;93463.47;5029469;28;20060;-82
2022/05/01 07:05:47;;;;;;;9.40;6.22;;;;;;;15.00;77.96;93472.41;5029331;28;20401;-82
2022/05/01 07:08:14;;;;;;;9.35;6.78;;;;;;;14.93;75.69;93447.47;5028975;28;20037;-82
2022/05/01 07:10:41;;;;;;;9.77;6.88;;;;;;;15.34;74.60;93472.50;5028652;28;20041;-81
2022/05/01 07:13:09;;;;;;;11.68;6.65;;;;;;;15.43;74.41;93484.03;5029313;28;20056;-82
2022/05/01 07:15:36;;;;;;;9.15;6.38;;;;;;;15.74;74.30;93474.16;5028991;28;20056;-82
2022/05/01 07:18:03;;;;;;;8.23;6.18;;;;;;;16.07;73.07;93478.84;5029047;28;20045;-82
2022/05/01 07:20:34;;;;;;;10.25;6.22;;;;;;;16.32;71.65;93468.03;5029183;28;20045;-82
2022/05/01 07:23:01;;;;;;;9.07;5.75;;;;;;;16.64;69.25;93467.41;5028956;28;20048;-82
2022/05/01 07:25:28;;;;;;;7.93;5.18;;;;;;;16.87;68.71;93483.78;5029189;28;20042;-82
2022/05/01 07:27:55;;;;;;;8.10;5.35;;;;;;;17.02;68.52;93477.16;5028876;28;20048;-81
2022/05/01 07:30:22;;;;;;;8.93;5.80;;;;;;;17.20;68.22;93478.69;5028619;28;20033;-81
2022/05/01 07:32:48;;;;;;;20.83;7.88;;;;;;;16.94;66.09;93450.63;5028971;28;20049;-82
2022/05/01 07:35:15;;;;;;;11.82;6.43;;;;;;;16.41;66.63;93450.28;5029207;28;20048;-83
2022/05/01 07:37:44;;;;;;;9.15;5.40;;;;;;;16.69;68.42;93477.06;5032623;28;20049;-83
2022/05/01 07:40:12;;;;;;;8.15;5.20;;;;;;;16.72;66.96;93455.06;5032830;28;20099;-84
2022/05/01 07:42:39;;;;;;;8.27;5.30;;;;;;;16.82;65.04;93468.91;5032886;28;20053;-83
2022/05/01 07:45:06;;;;;;;6.97;4.60;;;;;;;17.01;65.35;93488.56;5032608;28;20041;-82
2022/05/01 07:47:33;;;;;;;8.02;5.72;;;;;;;17.00;65.10;93466.25;5032451;28;20053;-82
2022/05/01 07:50:00;;;;;;;9.40;5.75;;;;;;;17.09;65.35;93468.19;5032623;28;20091;-84
2022/05/01 07:52:27;;;;;;;11.10;5.95;;;;;;;17.32;64.96;93474.13;5032573;28;20082;-84
2022/05/01 07:54:55;;;;;;;9.40;5.72;;;;;;;17.13;64.44;93439.19;5032733;28;20144;-84
2022/05/01 07:57:26;;;;;;;8.90;5.78;;;;;;;17.48;63.11;93472.47;5032056;28;20045;-84
2022/05/01 07:59:53;;;;;;;8.27;5.50;;;;;;;17.69;62.78;93464.09;5032279;28;20485;-84
2022/05/01 08:02:20;;;;;;;9.63;6.22;;;;;;;18.08;62.07;93476.88;5032333;28;20046;-84
2022/05/01 08:04:46;;;;;;;8.18;5.38;;;;;;;18.22;62.75;93469.44;5031954;28;20064;-83
2022/05/01 08:07:21;;;;;;;8.10;5.25;;;;;;;18.43;61.10;93462.50;5037886;28;20041;-84
2022/05/01 08:09:48;;;;;;;7.63;5.97;;;;;;;18.87;59.87;93472.84;5050179;28;20052;-84
2022/05/01 08:12:16;;;;;;;6.30;4.03;;;;;;;18.93;55.71;93464.03;5031913;28;20473;-84
2022/05/01 08:14:44;;;;;;;7.72;4.85;;;;;;;18.29;57.54;93427.59;5032428;28;20057;-85
2022/05/01 08:17:11;;;;;;;7.47;4.82;;;;;;;17.84;61.55;93453.03;5031453;28;20136;-85
2022/05/01 08:22:22;;;;;;;5.60;4.20;;;;;;;17.15;60.85;93447.50;5031585;28;20064;-84
2022/05/01 08:24:49;;;;;;;9.40;4.00;;;;;;;17.12;59.94;93422.03;5032174;28;20053;-85
2022/05/01 08:27:18;;;;;;;8.18;4.80;;;;;;;16.63;55.78;93401.03;5031914;28;20394;-86
2022/05/01 08:29:45;;;;;;;15.18;8.10;;;;;;;15.81;56.50;93468.84;5031917;28;20379;-84
2022/05/01 08:32:12;;;;;;;6.88;4.10;;;;;;;15.57;62.07;93400.88;5031389;28;20053;-84
2022/05/01 08:34:39;;;;;;;4.68;3.00;;;;;;;16.17;60.83;93453.06;5031243;28;20493;-84
2022/05/01 08:37:05;;;;;;;10.73;6.93;;;;;;;15.58;59.21;93423.16;5032020;28;20057;-84
2022/05/01 08:39:32;;;;;;;4.40;3.20;;;;;;;15.88;57.90;93367.69;5031685;28;20049;-84
2022/05/01 08:42:02;;;;;;;10.95;3.17;;;;;;;16.01;58.13;93356.19;5031657;28;20057;-85
2022/05/01 08:44:37;;;;;;;5.47;3.28;;;;;;;16.95;56.44;93412.50;5031295;28;20049;-85
2022/05/01 08:47:14;;;;;;;9.02;4.22;;;;;;;17.31;56.75;93392.09;5030523;28;20057;-85
2022/05/01 08:49:43;;;;;;;8.23;3.38;;;;;;;17.88;54.72;93394.31;5031053;28;20452;-85
2022/05/01 08:52:10;;;;;;;4.93;3.13;;;;;;;18.10;48.91;93411.66;5031285;28;20049;-85
2022/05/01 08:54:37;;;;;;;9.45;2.88;;;;;;;18.78;49.56;93425.72;5031020;28;20057;-85
2022/05/01 08:57:06;;;;;;;6.82;3.70;;;;;;;18.25;47.63;93439.53;5031299;28;20045;-85
2022/05/01 08:59:35;;;;;;;4.63;2.45;;;;;;;18.11;49.83;93390.59;5031026;28;20599;-85
2022/05/01 09:02:02;;;;;;;6.55;2.88;;;;;;;18.21;50.86;93383.88;5031051;28;20146;-85
2022/05/01 09:04:29;;;;;;;7.03;2.70;;;;;;;18.98;51.70;93406.75;5031422;28;20056;-84
2022/05/01 09:06:56;;;;;;;10.07;2.97;;;;;;;18.27;46.47;93419.25;5031063;28;20045;-85
2022/05/01 09:09:24;;;;;;;4.95;2.35;;;;;;;18.90;48.64;93386.47;5030758;28;20084;-85
2022/05/01 09:14:42;;;;;;;5.15;2.45;;;;;;;18.39;47.42;93398.25;5030763;28;20122;-86
2022/05/01 09:17:17;;;;;;;5.05;2.45;;;;;;;18.15;46.41;93401.28;5031102;28;20054;-85
2022/05/01 09:19:47;;;;;;;7.25;2.25;;;;;;;18.27;46.20;93391.44;5031040;28;20477;-85
2022/05/01 09:22:16;;;;;;;3.97;2.53;;;;;;;18.42;46.78;93384.72;5030978;28;20045;-86
2022/05/01 09:24:43;;;;;;;4.80;2.38;;;;;;;18.65;48.17;93321.09;5030557;28;20057;-85
2022/05/01 09:27:38;;;;;;;7.07;2.42;;;;;;;18.22;45.75;93313.44;5030194;28;20489;-88
2022/05/01 09:30:13;;;;;;;3.70;2.00;;;;;;;17.70;44.90;93333.94;5030167;28;20045;-85
2022/05/01 09:32:41;;;;;;;5.47;3.30;;;;;;;18.51;46.42;93375.41;5030321;28;20160;-85
2022/05/01 09:35:12;;;;;;;3.42;2.60;;;;;;;18.55;47.83;93314.03;5030648;28;20050;-85
2022/05/01 09:37:39;;;;;;;3.92;2.30;;;;;;;18.88;42.97;93359.91;5030830;28;20063;-85
2022/05/01 09:40:07;;;;;;;2.83;1.70;;;;;;;19.05;42.85;93318.84;5030557;28;20045;-84
2022/05/01 09:42:35;;;;;;;3.97;2.53;;;;;;;18.17;44.95;93308.22;5030284;28;20518;-85
2022/05/01 09:45:12;;;;;;;3.67;2.40;;;;;;;18.14;42.36;93351.09;5030110;28;20042;-85
2022/05/01 09:47:40;;;;;;;3.45;2.00;;;;;;;19.06;44.45;93353.44;5030501;28;20089;-84
2022/05/01 09:50:09;;;;;;;3.05;2.42;;;;;;;19.67;42.90;93341.44;5030352;28;20393;-84
2022/05/01 09:52:59;;;;;;;3.90;2.00;;;;;;;20.20;43.06;93303.00;5029730;28;20045;-84
2022/05/01 09:55:27;;;;;;;14.63;7.53;;;;;;;18.92;41.88;93338.31;5029633;28;20041;-84
2022/05/01 09:58:09;;;;;;;6.35;2.20;;;;;;;18.99;41.57;93327.66;5029681;28;20056;-85
2022/05/01 10:00:40;;;;;;;2.90;2.00;;;;;;;18.95;41.31;93321.41;5029858;28;20806;-83
2022/05/01 10:03:25;;;;;;;3.60;1.90;;;;;;;18.70;40.72;93338.50;5029727;28;20057;-84
2022/05/01 10:05:53;;;;;;;3.75;2.30;;;;;;;18.98;43.86;93313.06;5029875;28;20051;-84
2022/05/01 10:08:20;;;;;;;3.20;1.80;;;;;;;19.23;42.33;93283.69;5026409;28;20560;-83
2022/05/01 10:10:49;;;;;;;3.40;2.33;;;;;;;19.94;42.41;93297.88;5009821;28;20516;-85
2022/05/01 10:13:17;;;;;;;4.10;2.03;;;;;;;20.28;40.70;93279.75;5010203;28;20046;-85
2022/05/01 10:15:46;;;;;;;3.47;2.17;;;;;;;20.49;39.40;93297.94;5009340;28;20053;-86
2022/05/01 10:18:15;;;;;;;5.90;2.97;;;;;;;20.79;40.52;93266.69;5009194;28;20049;-85
2022/05/01 10:20:43;;;;;;;5.82;2.50;;;;;;;21.03;40.18;93256.38;5009500;28;20074;-84
2022/05/01 10:23:11;;;;;;;5.82;2.10;;;;;;;21.20;40.80;93300.34;5009578;28;20053;-86
2022/05/01 10:25:41;;;;;;;4.28;1.60;;;;;;;21.39;39.96;93304.13;5008855;28;20050;-85
2022/05/01 10:28:19;;;;;;;3.90;1.45;;;;;;;20.13;38.86;93243.31;5008353;28;20095;-85
2022/05/01 10:34:05;;;;;;;4.05;2.17;;;;;;;17.01;45.36;93257.63;4989857;28;20120;-87
2022/05/01 10:36:48;;;;;;;5.22;2.50;;;;;;;17.07;48.62;93256.66;4990784;28;20046;-89
2022/05/01 10:39:17;;;;;;;5.32;3.25;;;;;;;17.28;48.32;93288.75;4990852;28;20093;-88
2022/05/01 10:41:46;;;;;;;4.35;2.65;;;;;;;17.42;46.79;93290.91;4990607;28;20042;-87
2022/05/01 10:44:28;;;;;;;3.80;2.70;;;;;;;17.56;49.09;93288.66;5003461;28;20057;-85
2022/05/01 10:47:11;;;;;;;5.05;3.05;;;;;;;17.73;48.61;93293.69;4992813;28;20050;-84
2022/05/01 10:49:41;;;;;;;4.35;3.00;;;;;;;17.32;48.39;93235.28;4989964;28;20051;-85
2022/05/01 10:52:19;;;;;;;3.78;2.70;;;;;;;17.94;47.89;93291.19;4989900;28;20046;-85
2022/05/01 10:54:54;;;;;;;6.68;3.08;;;;;;;18.17;47.78;93297.81;4989843;28;20046;-85
2022/05/01 10:57:23;;;;;;;3.80;2.70;;;;;;;18.37;47.87;93281.47;4994467;28;20045;-85
2022/05/01 10:59:52;;;;;;;4.93;3.10;;;;;;;18.69;47.24;93292.72;5016710;28;20042;-85
2022/05/01 11:02:41;;;;;;;5.93;2.92;;;;;;;18.43;45.83;93236.25;5009117;28;20038;-85
2022/05/01 11:05:10;;;;;;;4.80;2.55;;;;;;;19.04;45.47;93286.03;5009045;28;20053;-85
2022/05/01 11:07:39;;;;;;;4.90;3.10;;;;;;;18.86;44.69;93237.06;5009412;28;20096;-85
2022/05/01 11:10:09;;;;;;;4.90;2.55;;;;;;;19.30;43.01;93290.44;5009285;28;20084;-85
2022/05/01 11:12:37;;;;;;;5.57;3.50;;;;;;;19.32;42.59;93280.53;5013379;28;20111;-85
2022/05/01 11:15:06;;;;;;;15.38;5.13;;;;;;;18.92;44.56;93215.97;5013075;28;20046;-85
2022/05/01 11:17:53;;;;;;;6.53;3.13;;;;;;;19.45;44.21;93284.44;5013628;28;20069;-84
2022/05/01 11:20:34;;;;;;;7.57;3.75;;;;;;;19.55;43.28;93281.81;5013015;28;20049;-85
2022/05/01 11:23:41;;;;;;;6.53;2.50;;;;;;;19.50;41.56;93282.59;5013150;28;20050;-86
2022/05/01 11:26:17;;;;;;;4.63;2.80;;;;;;;18.93;42.07;93227.19;5013070;28;20434;-85
2022/05/01 11:28:52;;;;;;;;;;;;;;;18.60;43.15;93276.09;5013296;28;20042;-86
2022/05/01 11:31:49;;;;;;;4.15;2.65;;;;;;;18.47;43.07;93213.09;5013152;28;20316;-87
2022/05/01 11:34:51;;;;;;;2.35;1.60;;;;;;;18.36;41.15;93269.53;5010522;28;20041;-86
2022/05/01 11:37:20;;;;;;;4.28;2.08;;;;;;;18.17;42.75;93269.22;5013656;28;20477;-85
2022/05/01 11:40:20;;;;;;;3.13;1.60;;;;;;;17.53;43.20;93261.38;5013831;28;20049;-86
2022/05/01 11:42:47;;;;;;;3.78;1.70;;;;;;;16.99;42.63;93264.88;5013350;28;20050;-85
2022/05/01 11:45:14;;;;;;;4.82;1.88;;;;;;;16.78;44.33;93260.31;5013339;28;20046;-85
2022/05/01 11:47:43;;;;;;;3.38;2.20;;;;;;;16.73;43.87;93249.91;5012793;28;20057;-84
2022/05/01 11:50:26;;;;;;;2.90;1.83;;;;;;;16.10;44.34;93164.84;5012987;28;20132;-84
2022/05/01 11:52:57;;;;;;;3.15;1.77;;;;;;;16.63;43.63;93245.41;5011927;28;20104;-85
2022/05/01 12:03:38;;;;;;;5.38;3.10;;;;;;;16.67;43.93;93202.38;5032896;28;20095;-84
2022/05/01 12:06:07;;;;;;;10.07;4.75;;;;;;;16.67;44.35;93189.41;5032912;28;20061;-85
2022/05/01 12:08:34;;;;;;;11.02;5.50;;;;;;;17.28;44.44;93239.44;5029093;28;20416;-85
2022/05/01 12:11:01;;;;;;;4.93;3.08;;;;;;;17.29;43.49;93189.06;5032741;28;20844;-84